Time;durP1;ratioP1;P1;durP2;ratioP2;P2;SDS_P1;SDS_P2;PMS_P1;PMS_P2;Temp;Humidity;BMP_temperature;BMP_pressure;BME280_temperature;BME280_humidity;BME280_pressure;Samples;Min_cycle;Max_cycle;Signal;HPM_P1;HPM_P2
2021/07/15 00:01:40;;;;;;;0.63;0.63;;;18.30;99.90;;;;;;5001074;28;20206;-89
2021/07/15 00:04:05;;;;;;;0.60;0.60;;;18.30;99.90;;;;;;4999766;28;20222;-89
2021/07/15 00:06:31;;;;;;;0.52;0.52;;;18.30;99.90;;;;;;5006081;28;20261;-89
2021/07/15 00:08:57;;;;;;;0.45;0.45;;;18.30;99.90;;;;;;5004975;28;20194;-88
2021/07/15 00:11:27;;;;;;;0.93;0.47;;;18.20;99.90;;;;;;5003431;28;20199;-87
2021/07/15 00:13:55;;;;;;;0.75;0.75;;;18.10;99.90;;;;;;5003489;28;20198;-86
2021/07/15 00:16:23;;;;;;;1.25;1.05;;;18.00;99.90;;;;;;4999703;28;20194;-88
2021/07/15 00:18:49;;;;;;;0.38;0.38;;;18.00;99.90;;;;;;5004612;28;20652;-87
2021/07/15 00:21:18;;;;;;;0.40;0.40;;;17.90;99.90;;;;;;5003822;28;20195;-87
2021/07/15 00:23:45;;;;;;;0.60;0.60;;;17.80;99.90;;;;;;5008134;28;20209;-88
2021/07/15 00:26:11;;;;;;;1.05;0.85;;;17.70;99.90;;;;;;5003970;28;20194;-89
2021/07/15 00:28:39;;;;;;;0.82;0.77;;;17.60;99.90;;;;;;5010308;28;20194;-88
2021/07/15 00:31:06;;;;;;;0.52;0.40;;;17.60;99.90;;;;;;5004121;28;20201;-88
2021/07/15 00:33:32;;;;;;;1.40;0.70;;;17.60;99.90;;;;;;5007181;28;20215;-87
2021/07/15 00:35:58;;;;;;;0.60;0.55;;;17.60;99.90;;;;;;5008005;28;20278;-89
2021/07/15 00:38:24;;;;;;;0.63;0.63;;;17.60;99.90;;;;;;5011237;28;20198;-89
2021/07/15 00:40:51;;;;;;;0.90;0.82;;;17.60;99.90;;;;;;5011342;28;20195;-88
2021/07/15 00:43:17;;;;;;;0.70;0.70;;;17.60;99.90;;;;;;5007127;28;20213;-88
2021/07/15 00:45:43;;;;;;;0.60;0.60;;;17.60;99.90;;;;;;5012066;28;20606;-88
2021/07/15 00:48:09;;;;;;;0.40;0.40;;;17.50;99.90;;;;;;5001312;28;20203;-89
2021/07/15 00:50:35;;;;;;;0.43;0.43;;;17.40;99.90;;;;;;4997824;28;20644;-88
2021/07/15 00:53:05;;;;;;;0.98;0.82;;;17.40;99.90;;;;;;5007958;28;20302;-88
2021/07/15 00:55:41;;;;;;;0.50;0.50;;;17.30;99.90;;;;;;5009479;28;20568;-87
2021/07/15 00:58:09;;;;;;;0.30;0.30;;;17.30;99.90;;;;;;5007862;28;20195;-89
2021/07/15 01:00:37;;;;;;;0.60;0.60;;;17.30;99.90;;;;;;5008460;28;20199;-85
2021/07/15 01:03:04;;;;;;;0.50;0.50;;;17.30;99.90;;;;;;5008994;28;20209;-83
2021/07/15 01:05:34;;;;;;;2.72;0.75;;;17.30;99.90;;;;;;5030349;22;20604;-72
2021/07/15 01:08:00;;;;;;;1.23;0.93;;;17.40;99.90;;;;;;5025262;28;20186;-72
2021/07/15 01:10:29;;;;;;;1.05;0.68;;;17.40;99.90;;;;;;5019862;28;20187;-72
2021/07/15 01:13:21;;;;;;;0.80;0.80;;;17.40;99.90;;;;;;5029716;28;20209;-72
2021/07/15 01:16:29;;;;;;;0.63;0.63;;;17.40;99.90;;;;;;5025749;28;20204;-72
2021/07/15 01:19:31;;;;;;;0.68;0.60;;;17.30;99.90;;;;;;4946911;28;20210;-72
2021/07/15 01:22:08;;;;;;;0.93;0.90;;;17.30;99.90;;;;;;5025047;28;20624;-72
2021/07/15 01:25:28;;;;;;;0.47;0.47;;;17.30;99.90;;;;;;5034091;28;20603;-72
2021/07/15 01:28:24;;;;;;;0.75;0.75;;;17.20;99.90;;;;;;5037908;28;20225;-72
2021/07/15 01:30:54;;;;;;;0.75;0.75;;;17.00;99.90;;;;;;5013095;28;20207;-72
2021/07/15 01:33:33;;;;;;;0.55;0.40;;;17.00;99.90;;;;;;5025961;28;20815;-72
2021/07/15 01:36:09;;;;;;;0.73;0.73;;;17.00;99.90;;;;;;5023080;28;20289;-72
2021/07/15 01:38:42;;;;;;;0.60;0.60;;;17.00;99.90;;;;;;5017807;28;20221;-73
2021/07/15 01:41:15;;;;;;;0.30;0.30;;;17.10;99.90;;;;;;5021550;28;20253;-72
2021/07/15 01:43:46;;;;;;;0.47;0.47;;;17.20;99.90;;;;;;5028705;28;20900;-73
2021/07/15 01:46:14;;;;;;;0.38;0.38;;;17.20;99.90;;;;;;5028391;28;20293;-72
2021/07/15 01:48:42;;;;;;;0.80;0.80;;;17.20;99.90;;;;;;5021880;28;20191;-72
2021/07/15 01:51:09;;;;;;;4.47;0.70;;;17.30;99.90;;;;;;5028372;28;20210;-72
2021/07/15 01:53:35;;;;;;;1.10;0.68;;;17.20;99.90;;;;;;5027696;28;20225;-72
2021/07/15 01:56:02;;;;;;;0.70;0.68;;;17.30;99.90;;;;;;5022207;28;20256;-72
2021/07/15 01:58:31;;;;;;;2.03;0.63;;;17.30;99.90;;;;;;5021247;28;20667;-72
2021/07/15 02:00:58;;;;;;;1.33;1.00;;;17.40;99.90;;;;;;5027274;28;20191;-71
2021/07/15 02:03:25;;;;;;;0.85;0.82;;;17.40;99.90;;;;;;5027862;28;20207;-71
2021/07/15 02:05:52;;;;;;;1.52;0.75;;;17.40;99.90;;;;;;5028488;28;20737;-71
2021/07/15 02:08:18;;;;;;;0.68;0.68;;;17.40;99.90;;;;;;5027848;28;20207;-71
2021/07/15 02:10:45;;;;;;;2.08;0.60;;;17.50;99.90;;;;;;5027007;28;20273;-72
2021/07/15 02:13:11;;;;;;;1.08;0.93;;;17.60;99.90;;;;;;5015416;28;20596;-70
2021/07/15 02:15:39;;;;;;;0.40;0.40;;;17.70;99.90;;;;;;5023917;28;20289;-71
2021/07/15 02:18:13;;;;;;;1.55;0.98;;;17.80;99.90;;;;;;5030911;28;20198;-72
2021/07/15 02:20:39;;;;;;;1.15;0.88;;;17.90;99.90;;;;;;5021282;28;20194;-72
2021/07/15 02:23:07;;;;;;;0.63;0.63;;;17.90;99.90;;;;;;5017987;28;20206;-72
2021/07/15 02:25:36;;;;;;;0.98;0.73;;;18.00;99.90;;;;;;5036614;28;20321;-72
2021/07/15 02:28:02;;;;;;;0.85;0.68;;;18.00;99.90;;;;;;5017555;28;20271;-72
2021/07/15 02:30:28;;;;;;;0.52;0.52;;;18.00;99.90;;;;;;5023309;28;20209;-72
2021/07/15 02:33:02;;;;;;;1.75;1.38;;;18.00;99.90;;;;;;5022304;28;20198;-72
2021/07/15 02:35:39;;;;;;;5.20;1.00;;;18.00;99.90;;;;;;5016600;28;20202;-72
2021/07/15 02:38:08;;;;;;;0.75;0.68;;;18.10;99.90;;;;;;5022829;28;20249;-72
2021/07/15 02:40:34;;;;;;;0.50;0.50;;;18.10;99.90;;;;;;5018540;28;20320;-71
2021/07/15 02:43:00;;;;;;;0.50;0.50;;;18.10;99.90;;;;;;5018136;28;20203;-72
2021/07/15 02:45:26;;;;;;;2.10;1.00;;;18.20;99.90;;;;;;5025344;28;20198;-72
2021/07/15 02:47:52;;;;;;;1.23;0.90;;;18.20;99.90;;;;;;5023200;28;20205;-72
2021/07/15 02:50:21;;;;;;;2.13;1.38;;;18.30;99.90;;;;;;5020429;28;20199;-71
2021/07/15 02:52:49;;;;;;;1.65;0.63;;;18.30;99.90;;;;;;5022892;28;20245;-72
2021/07/15 02:55:15;;;;;;;0.60;0.60;;;18.30;99.90;;;;;;5041778;28;20252;-72
2021/07/15 02:58:00;;;;;;;1.27;0.70;;;18.40;99.90;;;;;;5024336;28;20542;-72
2021/07/15 03:00:27;;;;;;;1.15;1.05;;;18.40;99.90;;;;;;5024114;28;20209;-71
2021/07/15 03:02:56;;;;;;;0.52;0.52;;;18.40;99.90;;;;;;5026786;28;20209;-72
2021/07/15 03:05:25;;;;;;;0.40;0.40;;;18.40;99.90;;;;;;5016527;28;20640;-72
2021/07/15 03:08:05;;;;;;;1.38;0.95;;;18.50;99.90;;;;;;5036672;28;20197;-72
2021/07/15 03:10:32;;;;;;;0.55;0.55;;;18.50;99.90;;;;;;5022558;28;20194;-72
2021/07/15 03:12:58;;;;;;;1.48;1.25;;;18.60;99.90;;;;;;5018832;28;20327;-72
2021/07/15 03:15:26;;;;;;;1.27;0.60;;;18.60;99.90;;;;;;5024432;28;20673;-72
2021/07/15 03:17:54;;;;;;;1.38;0.68;;;18.60;99.90;;;;;;5023834;28;20204;-72
2021/07/15 03:20:33;;;;;;;1.75;1.15;;;18.60;99.90;;;;;;5015675;28;20202;-72
2021/07/15 03:23:04;;;;;;;0.60;0.60;;;18.60;99.90;;;;;;5017006;28;20238;-72
2021/07/15 03:25:31;;;;;;;0.50;0.50;;;18.60;99.90;;;;;;5014888;28;20200;-73
2021/07/15 03:28:00;;;;;;;1.73;1.15;;;18.70;99.90;;;;;;5018170;28;20663;-72
2021/07/15 03:30:27;;;;;;;0.75;0.43;;;18.70;99.90;;;;;;5018267;28;20629;-72
2021/07/15 03:32:53;;;;;;;0.32;0.32;;;18.70;99.90;;;;;;5018928;28;20277;-73
2021/07/15 03:35:20;;;;;;;2.47;0.93;;;18.70;99.90;;;;;;5015437;28;20230;-72
2021/07/15 03:37:48;;;;;;;1.27;1.17;;;18.70;99.90;;;;;;5019953;28;20206;-72
2021/07/15 03:40:19;;;;;;;1.85;1.20;;;18.70;99.90;;;;;;5021720;28;20573;-72
2021/07/15 03:42:46;;;;;;;1.52;0.85;;;18.70;99.90;;;;;;5028449;28;20285;-73
2021/07/15 03:45:16;;;;;;;1.13;0.90;;;18.70;99.90;;;;;;5017700;28;20198;-73
2021/07/15 03:47:42;;;;;;;3.17;1.35;;;18.80;99.90;;;;;;5016194;28;20191;-72
2021/07/15 03:50:09;;;;;;;1.38;0.90;;;18.80;99.90;;;;;;5021101;28;20197;-73
2021/07/15 03:52:37;;;;;;;0.60;0.60;;;18.80;99.90;;;;;;5028727;28;20193;-73
2021/07/15 03:55:05;;;;;;;1.27;0.68;;;18.80;99.90;;;;;;5024646;28;20206;-72
2021/07/15 03:57:32;;;;;;;0.88;0.77;;;18.90;99.90;;;;;;5025258;28;20643;-72
2021/07/15 03:59:59;;;;;;;0.88;0.88;;;18.80;99.90;;;;;;5023281;28;20202;-72
2021/07/15 04:02:29;;;;;;;0.40;0.40;;;18.90;99.90;;;;;;5013469;28;20191;-72
2021/07/15 04:04:57;;;;;;;0.55;0.55;;;18.90;99.90;;;;;;5013861;28;20241;-72
2021/07/15 04:07:26;;;;;;;0.60;0.60;;;18.90;99.90;;;;;;5018352;28;20214;-72
2021/07/15 04:09:53;;;;;;;1.80;0.82;;;18.90;99.90;;;;;;5025338;28;20190;-72
2021/07/15 04:12:23;;;;;;;1.20;0.90;;;18.90;99.90;;;;;;5017476;28;20190;-72
2021/07/15 04:15:02;;;;;;;1.92;1.30;;;18.90;99.90;;;;;;5020339;28;20243;-71
2021/07/15 04:17:31;;;;;;;0.82;0.82;;;19.00;99.90;;;;;;5019414;28;20572;-73
2021/07/15 04:20:00;;;;;;;0.98;0.90;;;19.00;99.90;;;;;;5014209;28;20222;-74
2021/07/15 04:22:28;;;;;;;1.60;0.85;;;19.00;99.90;;;;;;5020365;28;20545;-73
2021/07/15 04:24:57;;;;;;;6.50;1.90;;;19.10;99.90;;;;;;5016811;28;20270;-73
2021/07/15 04:27:24;;;;;;;0.65;0.65;;;19.10;99.90;;;;;;5024452;28;20209;-73
2021/07/15 04:29:50;;;;;;;2.13;1.33;;;19.10;99.90;;;;;;5025233;28;20209;-74
2021/07/15 04:32:26;;;;;;;1.15;1.05;;;19.20;99.90;;;;;;5023624;28;20211;-73
2021/07/15 04:34:53;;;;;;;0.70;0.60;;;19.30;99.90;;;;;;5022247;28;20250;-74
2021/07/15 04:37:20;;;;;;;0.90;0.90;;;19.30;99.90;;;;;;5018843;28;20885;-74
2021/07/15 04:39:47;;;;;;;1.55;1.45;;;19.30;99.90;;;;;;5017785;28;20687;-74
2021/07/15 04:42:15;;;;;;;1.17;1.02;;;19.50;99.90;;;;;;5021001;28;20203;-74
2021/07/15 04:44:44;;;;;;;0.45;0.45;;;19.60;99.90;;;;;;5016379;28;20273;-74
2021/07/15 04:47:12;;;;;;;1.13;1.02;;;19.70;99.90;;;;;;5019580;28;20281;-73
2021/07/15 04:49:37;;;;;;;2.47;1.40;;;19.70;99.90;;;;;;5019396;28;20214;-73
2021/07/15 04:52:06;;;;;;;7.45;0.95;;;19.70;99.90;;;;;;5018461;28;20198;-73
2021/07/15 04:54:32;;;;;;;1.38;1.10;;;19.70;99.90;;;;;;5017867;28;20243;-73
2021/07/15 04:56:59;;;;;;;1.35;1.08;;;19.60;99.90;;;;;;5018886;28;20212;-73
2021/07/15 04:59:25;;;;;;;1.15;0.77;;;19.70;99.90;;;;;;5017820;28;20232;-73
2021/07/15 05:01:51;;;;;;;1.50;1.38;;;19.80;99.90;;;;;;5012981;28;20202;-71
2021/07/15 05:04:17;;;;;;;3.35;1.95;;;19.80;99.90;;;;;;5023772;28;20214;-72
2021/07/15 05:06:43;;;;;;;1.05;0.50;;;19.70;99.90;;;;;;5014074;28;20209;-72
2021/07/15 05:09:08;;;;;;;1.05;0.82;;;19.70;99.90;;;;;;5017302;28;20264;-72
2021/07/15 05:11:35;;;;;;;0.57;0.57;;;19.60;99.90;;;;;;5022552;28;20194;-72
2021/07/15 05:14:04;;;;;;;0.90;0.90;;;19.60;99.90;;;;;;5023422;28;20233;-72
2021/07/15 05:16:31;;;;;;;2.03;0.95;;;19.60;99.90;;;;;;5025497;28;20533;-72
2021/07/15 05:18:57;;;;;;;1.15;1.05;;;19.50;99.90;;;;;;5018912;28;20278;-72
2021/07/15 05:21:23;;;;;;;2.25;1.13;;;19.50;99.90;;;;;;5023264;28;20198;-72
2021/07/15 05:23:49;;;;;;;2.08;1.58;;;19.50;99.90;;;;;;5017395;28;20268;-71
2021/07/15 05:26:15;;;;;;;4.95;1.25;;;19.50;99.90;;;;;;5022492;28;20226;-72
2021/07/15 05:28:42;;;;;;;1.27;1.08;;;19.60;99.90;;;;;;5010028;28;20229;-72
2021/07/15 05:31:08;;;;;;;6.15;1.85;;;19.70;99.90;;;;;;5024186;28;20260;-72
2021/07/15 05:33:34;;;;;;;0.80;0.75;;;19.60;99.90;;;;;;5021285;28;20593;-72
2021/07/15 05:36:00;;;;;;;1.70;1.27;;;19.60;99.90;;;;;;5018780;28;20199;-72
2021/07/15 05:38:25;;;;;;;1.70;1.23;;;19.60;99.90;;;;;;5013318;28;20207;-72
2021/07/15 05:40:51;;;;;;;0.55;0.50;;;19.60;99.90;;;;;;5023185;28;20198;-73
2021/07/15 05:43:17;;;;;;;1.20;0.98;;;19.60;99.90;;;;;;5022671;28;20205;-72
2021/07/15 05:45:42;;;;;;;0.70;0.70;;;19.70;99.90;;;;;;5021149;28;21071;-72
2021/07/15 05:48:08;;;;;;;1.05;0.93;;;19.70;99.90;;;;;;5023027;28;20203;-72
2021/07/15 05:50:34;;;;;;;0.85;0.68;;;19.80;99.90;;;;;;5018849;28;20202;-72
2021/07/15 05:52:59;;;;;;;0.70;0.70;;;19.80;99.90;;;;;;5014210;28;20585;-72
2021/07/15 05:55:25;;;;;;;2.58;1.13;;;19.90;99.90;;;;;;5022066;28;20226;-72
2021/07/15 05:57:51;;;;;;;1.85;1.10;;;19.90;99.90;;;;;;5013370;28;20586;-72
2021/07/15 06:00:17;;;;;;;1.63;0.88;;;19.80;99.90;;;;;;5022777;28;20257;-72
2021/07/15 06:02:43;;;;;;;1.45;1.35;;;19.70;99.90;;;;;;5018229;28;20712;-72
2021/07/15 06:05:09;;;;;;;0.93;0.85;;;19.80;99.90;;;;;;5023973;28;20312;-72
2021/07/15 06:07:36;;;;;;;0.90;0.90;;;19.80;99.90;;;;;;5026184;28;20199;-72
2021/07/15 06:10:06;;;;;;;2.03;0.95;;;19.90;99.90;;;;;;5020673;28;20188;-72
2021/07/15 06:12:32;;;;;;;1.73;1.08;;;19.90;99.90;;;;;;5017065;28;20851;-72
2021/07/15 06:14:58;;;;;;;1.20;1.10;;;20.00;99.90;;;;;;5025775;28;20298;-72
2021/07/15 06:17:24;;;;;;;0.88;0.88;;;20.10;99.90;;;;;;5016818;28;20203;-72
2021/07/15 06:19:51;;;;;;;1.45;1.05;;;20.20;99.90;;;;;;5023141;28;20193;-72
2021/07/15 06:22:17;;;;;;;0.98;0.93;;;20.20;99.90;;;;;;5013198;28;20233;-72
2021/07/15 06:24:43;;;;;;;0.63;0.63;;;20.10;99.90;;;;;;5022205;28;20206;-72
2021/07/15 06:27:08;;;;;;;1.17;0.85;;;20.00;99.90;;;;;;5020948;28;20194;-72
2021/07/15 06:29:34;;;;;;;0.70;0.70;;;20.00;99.90;;;;;;5022776;28;20221;-72
2021/07/15 06:32:00;;;;;;;1.13;1.02;;;20.00;99.90;;;;;;5021563;28;20191;-72
2021/07/15 06:34:26;;;;;;;0.80;0.63;;;20.10;99.90;;;;;;5021039;28;20645;-72
2021/07/15 06:36:53;;;;;;;1.00;0.85;;;20.10;99.90;;;;;;5017482;28;20186;-73
2021/07/15 06:39:19;;;;;;;0.82;0.75;;;20.20;99.90;;;;;;5022131;28;20198;-72
2021/07/15 06:41:45;;;;;;;2.28;1.42;;;20.20;99.90;;;;;;5015519;28;20281;-72
2021/07/15 06:44:11;;;;;;;1.27;0.43;;;20.10;99.90;;;;;;5020076;28;20592;-72
2021/07/15 06:46:38;;;;;;;1.15;1.05;;;20.10;99.90;;;;;;5021405;28;20218;-72
2021/07/15 06:49:04;;;;;;;0.60;0.60;;;20.10;99.90;;;;;;5017135;28;20590;-72
2021/07/15 06:51:30;;;;;;;1.10;1.00;;;20.20;99.90;;;;;;5017027;28;21663;-72
2021/07/15 06:53:56;;;;;;;0.60;0.60;;;20.20;99.90;;;;;;5020592;28;20281;-72
2021/07/15 06:56:22;;;;;;;0.88;0.88;;;20.20;99.90;;;;;;5015509;28;20210;-72
2021/07/15 06:58:47;;;;;;;1.45;0.90;;;20.20;99.90;;;;;;5022919;28;20768;-71
2021/07/15 07:01:13;;;;;;;1.50;1.23;;;20.20;99.90;;;;;;5013506;28;20218;-71
2021/07/15 07:03:39;;;;;;;2.55;1.33;;;20.20;99.90;;;;;;5015714;28;20214;-71
2021/07/15 07:06:05;;;;;;;1.52;0.82;;;20.30;99.90;;;;;;5014158;28;20199;-72
2021/07/15 07:08:31;;;;;;;1.00;0.98;;;20.30;99.90;;;;;;5019565;28;20195;-72
2021/07/15 07:10:57;;;;;;;0.63;0.57;;;20.40;99.90;;;;;;5021991;28;20544;-71
2021/07/15 07:13:22;;;;;;;3.13;1.58;;;20.40;99.90;;;;;;5021668;28;20209;-71
2021/07/15 07:15:48;;;;;;;0.63;0.43;;;20.40;99.90;;;;;;5015980;28;20222;-71
2021/07/15 07:18:14;;;;;;;0.63;0.63;;;20.30;99.90;;;;;;5022982;28;20205;-72
2021/07/15 07:20:39;;;;;;;5.20;2.15;;;20.30;99.90;;;;;;5020270;28;20797;-71
2021/07/15 07:23:06;;;;;;;1.33;0.95;;;20.40;99.90;;;;;;5021405;28;20688;-72
2021/07/15 07:25:32;;;;;;;1.08;0.70;;;20.30;99.90;;;;;;5022394;28;20278;-72
2021/07/15 07:27:58;;;;;;;2.88;1.15;;;20.40;99.90;;;;;;5022185;28;20312;-71
2021/07/15 07:30:23;;;;;;;3.10;2.30;;;20.30;99.90;;;;;;5013106;28;20778;-72
2021/07/15 07:32:49;;;;;;;1.25;1.00;;;20.30;99.90;;;;;;5017968;28;20207;-72
2021/07/15 07:35:16;;;;;;;1.27;1.08;;;20.30;99.90;;;;;;5018016;28;20198;-71
2021/07/15 07:37:43;;;;;;;1.17;1.00;;;20.30;99.90;;;;;;5013395;28;20210;-72
2021/07/15 07:40:11;;;;;;;2.20;0.73;;;20.40;99.90;;;;;;5015039;28;20997;-72
2021/07/15 07:42:37;;;;;;;1.85;1.23;;;20.50;99.90;;;;;;5009181;28;20209;-72
2021/07/15 07:45:05;;;;;;;0.77;0.75;;;20.50;99.90;;;;;;5019576;28;20198;-72
2021/07/15 07:47:31;;;;;;;0.75;0.75;;;20.70;99.90;;;;;;5015503;28;20202;-72
2021/07/15 07:49:57;;;;;;;1.17;0.80;;;20.70;99.90;;;;;;5030466;28;20201;-72
2021/07/15 07:52:22;;;;;;;0.60;0.60;;;20.90;99.90;;;;;;5015012;28;20194;-72
2021/07/15 07:54:48;;;;;;;1.15;1.05;;;21.00;99.90;;;;;;5014257;28;20692;-72
2021/07/15 07:57:14;;;;;;;2.13;1.10;;;21.20;99.90;;;;;;5015519;28;20198;-72
2021/07/15 07:59:39;;;;;;;2.85;1.48;;;21.30;99.90;;;;;;5019516;28;20199;-72
2021/07/15 08:02:05;;;;;;;2.25;1.00;;;21.20;99.90;;;;;;5018792;28;20285;-72
2021/07/15 08:04:31;;;;;;;1.15;1.02;;;21.10;99.90;;;;;;5009876;28;20246;-72
2021/07/15 08:06:57;;;;;;;2.15;0.98;;;21.10;99.90;;;;;;5021371;28;20182;-71
2021/07/15 08:09:23;;;;;;;1.08;0.95;;;21.20;99.90;;;;;;5020976;28;20717;-72
2021/07/15 08:11:51;;;;;;;0.73;0.73;;;21.20;99.90;;;;;;5021744;28;20197;-72
2021/07/15 08:14:17;;;;;;;1.65;0.82;;;21.30;99.90;;;;;;5023072;28;20845;-72
2021/07/15 08:16:45;;;;;;;1.80;1.23;;;21.30;99.90;;;;;;5013154;28;20222;-72
2021/07/15 08:19:11;;;;;;;2.67;0.85;;;21.50;99.90;;;;;;5015290;28;20191;-72
2021/07/15 08:21:37;;;;;;;3.95;1.70;;;21.60;99.90;;;;;;5017117;28;20217;-72
2021/07/15 08:24:03;;;;;;;1.83;1.08;;;21.70;99.90;;;;;;5018489;28;20238;-72
2021/07/15 08:26:28;;;;;;;0.80;0.80;;;21.80;99.90;;;;;;5020405;28;20236;-72
2021/07/15 08:28:54;;;;;;;1.65;1.42;;;21.90;99.90;;;;;;5023460;28;20204;-71
2021/07/15 08:31:22;;;;;;;6.85;1.15;;;22.00;99.90;;;;;;5021627;28;20217;-72
2021/07/15 08:33:47;;;;;;;2.00;0.70;;;22.10;99.90;;;;;;5014073;28;20579;-72
2021/07/15 08:36:13;;;;;;;1.50;1.38;;;22.10;99.90;;;;;;5016242;28;20202;-72
2021/07/15 08:38:41;;;;;;;1.63;1.05;;;22.10;99.90;;;;;;5009134;28;20203;-72
2021/07/15 08:41:07;;;;;;;1.48;0.88;;;22.10;99.90;;;;;;5016710;28;20198;-72
2021/07/15 08:43:35;;;;;;;1.40;1.30;;;22.30;99.90;;;;;;5019161;28;20947;-72
2021/07/15 08:46:03;;;;;;;1.98;1.00;;;22.30;99.90;;;;;;5021401;28;20226;-72
2021/07/15 08:48:31;;;;;;;1.08;1.05;;;22.20;99.90;;;;;;5012045;28;20496;-72
2021/07/15 08:50:58;;;;;;;3.08;1.45;;;22.30;99.90;;;;;;5014300;28;20183;-71
2021/07/15 08:53:27;;;;;;;2.33;1.77;;;22.50;99.90;;;;;;5016129;28;20198;-71
2021/07/15 08:58:38;;;;;;;3.80;1.65;;;22.80;99.90;;;;;;5016972;28;20221;-72
2021/07/15 09:01:04;;;;;;;2.50;1.92;;;22.90;99.90;;;;;;5019283;28;20676;-72
2021/07/15 09:03:34;;;;;;;3.30;0.90;;;22.90;99.90;;;;;;5017387;28;20210;-72
2021/07/15 09:06:00;;;;;;;0.90;0.82;;;22.90;99.90;;;;;;4998081;28;20696;-71
2021/07/15 09:08:25;;;;;;;0.77;0.77;;;22.90;99.90;;;;;;5000117;28;20195;-71
2021/07/15 09:10:51;;;;;;;1.23;1.13;;;22.80;99.90;;;;;;5007159;28;20195;-71
2021/07/15 09:13:17;;;;;;;0.98;0.88;;;22.90;99.90;;;;;;4998874;28;20230;-73
2021/07/15 09:15:48;;;;;;;1.20;0.65;;;22.90;99.90;;;;;;4986568;28;20664;-72
2021/07/15 09:18:15;;;;;;;1.85;0.85;;;22.90;99.90;;;;;;4988817;28;20199;-71
2021/07/15 09:20:41;;;;;;;2.85;1.75;;;22.90;99.90;;;;;;4998076;28;20198;-75
2021/07/15 09:23:10;;;;;;;0.77;0.73;;;23.10;99.90;;;;;;5007043;28;20672;-72
2021/07/15 09:25:38;;;;;;;1.45;1.05;;;23.20;99.90;;;;;;5005527;28;20309;-72
2021/07/15 09:28:13;;;;;;;0.98;0.75;;;23.30;99.90;;;;;;5004829;28;20179;-72
2021/07/15 09:30:41;;;;;;;1.00;0.88;;;23.30;99.90;;;;;;5002702;28;20198;-71
2021/07/15 09:33:09;;;;;;;15.57;2.08;;;23.30;99.90;;;;;;5004453;28;20211;-71
2021/07/15 09:35:43;;;;;;;1.65;0.90;;;23.30;99.90;;;;;;4998373;28;20199;-71
2021/07/15 09:38:18;;;;;;;2.58;1.17;;;23.40;99.90;;;;;;4986486;28;20195;-72
2021/07/15 09:40:49;;;;;;;0.95;0.70;;;23.50;99.90;;;;;;5001845;28;20199;-72
2021/07/15 09:43:30;;;;;;;0.50;0.50;;;23.50;99.90;;;;;;5001301;28;20233;-72
2021/07/15 09:45:57;;;;;;;0.77;0.77;;;23.50;99.90;;;;;;4985880;28;20712;-71
2021/07/15 09:48:26;;;;;;;1.67;1.10;;;23.60;99.90;;;;;;5003403;28;20333;-72
2021/07/15 09:50:55;;;;;;;1.35;1.10;;;23.70;99.90;;;;;;4987113;28;20269;-72
2021/07/15 09:53:33;;;;;;;2.17;1.55;;;23.70;99.90;;;;;;4981614;28;20203;-72
2021/07/15 09:56:11;;;;;;;2.33;1.20;;;23.80;99.90;;;;;;4979487;28;20203;-71
2021/07/15 09:58:40;;;;;;;2.22;1.23;;;24.30;99.90;;;;;;5003467;28;20634;-72
2021/07/15 10:01:20;;;;;;;0.90;0.73;;;24.40;99.90;;;;;;4999576;28;20198;-73
2021/07/15 10:03:48;;;;;;;1.02;0.57;;;24.50;99.90;;;;;;4996392;28;20282;-72
2021/07/15 10:06:15;;;;;;;1.05;0.95;;;24.40;99.90;;;;;;5020443;28;20208;-71
2021/07/15 10:08:43;;;;;;;0.80;0.80;;;24.60;99.90;;;;;;5020677;28;20193;-71
2021/07/15 10:11:28;;;;;;;0.50;0.50;;;24.90;99.90;;;;;;5017923;28;20199;-72
2021/07/15 10:14:04;;;;;;;1.33;0.88;;;25.60;99.90;;;;;;5022715;28;20202;-72
2021/07/15 10:16:32;;;;;;;1.48;0.70;;;26.00;99.90;;;;;;5035686;28;20419;-72
2021/07/15 10:18:58;;;;;;;0.70;0.70;;;26.20;99.90;;;;;;5012728;28;20206;-72
2021/07/15 10:21:29;;;;;;;1.40;1.08;;;26.20;99.90;;;;;;5028085;28;20198;-72
2021/07/15 10:23:56;;;;;;;4.50;1.70;;;26.10;99.90;;;;;;5013135;28;20231;-71
2021/07/15 10:26:21;;;;;;;1.02;0.82;;;26.30;99.90;;;;;;5015702;28;20763;-72
2021/07/15 10:28:50;;;;;;;1.30;0.57;;;26.60;99.90;;;;;;5025014;28;20269;-71
2021/07/15 10:31:17;;;;;;;0.45;0.43;;;26.50;99.90;;;;;;5011540;28;21058;-72
2021/07/15 10:33:44;;;;;;;2.25;0.88;;;26.50;99.90;;;;;;5021528;28;20198;-73
2021/07/15 10:36:12;;;;;;;1.08;0.65;;;26.50;99.90;;;;;;5018616;28;20228;-73
2021/07/15 10:38:43;;;;;;;0.65;0.63;;;26.50;99.90;;;;;;5021384;28;20572;-72
2021/07/15 10:41:10;;;;;;;0.68;0.68;;;26.40;99.90;;;;;;5017060;28;20568;-72
2021/07/15 10:43:37;;;;;;;1.02;0.90;;;26.30;99.90;;;;;;5021108;28;20206;-71
2021/07/15 10:46:04;;;;;;;0.73;0.68;;;26.30;99.90;;;;;;5025160;28;20186;-72
2021/07/15 10:48:32;;;;;;;1.30;0.82;;;26.30;99.90;;;;;;5013431;28;20194;-71
2021/07/15 10:51:00;;;;;;;0.70;0.68;;;26.10;99.90;;;;;;5018970;28;20493;-71
2021/07/15 10:53:27;;;;;;;2.80;0.88;;;25.80;99.90;;;;;;5015463;28;20210;-72
2021/07/15 10:55:53;;;;;;;2.10;1.10;;;26.30;99.90;;;;;;5021825;28;20204;-72
2021/07/15 10:58:44;;;;;;;0.88;0.60;;;26.50;99.90;;;;;;5016117;28;20264;-72
2021/07/15 11:01:12;;;;;;;2.05;0.85;;;26.70;99.90;;;;;;5015000;28;20596;-73
2021/07/15 11:03:37;;;;;;;3.58;1.27;;;26.70;99.90;;;;;;5015726;28;20200;-72
2021/07/15 11:06:03;;;;;;;0.95;0.85;;;26.60;99.90;;;;;;5019955;28;20285;-73
2021/07/15 11:08:44;;;;;;;1.08;0.85;;;26.90;99.90;;;;;;5016658;28;20660;-71
2021/07/15 11:11:11;;;;;;;1.38;0.95;;;27.60;99.90;;;;;;5013667;28;20189;-72
2021/07/15 11:13:38;;;;;;;1.70;0.90;;;28.00;99.90;;;;;;5020008;28;20658;-71
2021/07/15 11:16:06;;;;;;;1.85;1.42;;;28.20;99.90;;;;;;5018485;28;20682;-72
2021/07/15 11:18:38;;;;;;;0.65;0.65;;;28.20;99.90;;;;;;5024321;28;20205;-72
2021/07/15 11:21:26;;;;;;;1.30;1.20;;;28.30;99.90;;;;;;5014695;28;20190;-72
2021/07/15 11:24:11;;;;;;;0.70;0.70;;;28.70;99.90;;;;;;5013432;28;20918;-71
2021/07/15 11:26:41;;;;;;;0.57;0.57;;;28.80;99.90;;;;;;5036101;28;20198;-72
2021/07/15 11:29:08;;;;;;;1.23;1.13;;;29.40;99.90;;;;;;5022771;28;20194;-72
2021/07/15 11:31:50;;;;;;;1.65;1.33;;;29.30;99.90;;;;;;5015418;28;20224;-72
2021/07/15 11:34:40;;;;;;;2.05;1.52;;;29.30;99.90;;;;;;5017683;28;20200;-72
2021/07/15 11:37:33;;;;;;;1.42;1.05;;;29.40;99.90;;;;;;5021204;28;20206;-72
2021/07/15 11:40:00;;;;;;;1.88;0.90;;;29.60;99.90;;;;;;5010208;28;20626;-72
2021/07/15 11:42:32;;;;;;;2.38;1.13;;;29.60;99.90;;;;;;5012580;28;20206;-72
2021/07/15 11:45:09;;;;;;;0.77;0.70;;;29.70;99.90;;;;;;5014180;28;20288;-71
2021/07/15 11:47:53;;;;;;;1.35;0.85;;;30.10;99.90;;;;;;5015909;28;20212;-72
2021/07/15 11:50:37;;;;;;;2.30;1.42;;;30.20;99.90;;;;;;5020590;28;20704;-72
2021/07/15 11:53:23;;;;;;;1.08;0.90;;;30.20;99.90;;;;;;5009827;28;20249;-73
2021/07/15 11:55:51;;;;;;;2.20;1.35;;;30.50;99.90;;;;;;5023427;28;20208;-73
2021/07/15 11:58:39;;;;;;;0.98;0.88;;;30.50;99.90;;;;;;5020996;28;20269;-71
2021/07/15 12:01:34;;;;;;;2.08;1.33;;;30.40;99.90;;;;;;5019810;28;20240;-72
2021/07/15 12:04:09;;;;;;;0.75;0.60;;;31.00;99.90;;;;;;5015600;28;20233;-71
2021/07/15 12:06:37;;;;;;;1.35;0.80;;;31.10;99.90;;;;;;5018388;28;20202;-72
2021/07/15 12:09:06;;;;;;;1.50;0.90;;;31.40;99.90;;;;;;5018467;28;20198;-72
2021/07/15 12:11:32;;;;;;;3.95;1.40;;;31.60;99.90;;;;;;5017942;28;20194;-72
2021/07/15 12:14:00;;;;;;;2.78;1.60;;;31.40;99.90;;;;;;5020281;28;20253;-73
2021/07/15 12:16:26;;;;;;;1.55;0.90;;;31.10;99.90;;;;;;5022014;28;20202;-72
2021/07/15 12:18:53;;;;;;;4.97;1.10;;;30.90;99.90;;;;;;5017250;28;20276;-72
2021/07/15 12:21:21;;;;;;;2.33;1.48;;;30.60;99.90;;;;;;5010675;28;20217;-72
2021/07/15 12:23:50;;;;;;;0.85;0.85;;;30.80;99.90;;;;;;5008916;28;20686;-72
2021/07/15 12:26:21;;;;;;;0.65;0.60;;;30.70;99.90;;;;;;5025768;28;20320;-73
2021/07/15 12:28:48;;;;;;;1.50;0.65;;;30.80;99.90;;;;;;5021337;28;20217;-72
2021/07/15 12:31:20;;;;;;;1.75;1.02;;;31.20;99.90;;;;;;5016295;28;20285;-73
2021/07/15 12:33:48;;;;;;;1.63;0.88;;;31.30;99.90;;;;;;5021824;28;20225;-72
2021/07/15 12:36:18;;;;;;;0.77;0.70;;;31.30;99.90;;;;;;5018408;28;20198;-73
2021/07/15 12:38:51;;;;;;;1.08;0.75;;;31.50;99.90;;;;;;5024891;28;20220;-74
2021/07/15 12:41:23;;;;;;;0.65;0.65;;;31.60;99.90;;;;;;5018104;28;20305;-71
2021/07/15 12:43:58;;;;;;;19.75;0.70;;;31.70;99.90;;;;;;5024093;28;20208;-72
2021/07/15 12:46:28;;;;;;;3.05;1.48;;;32.10;99.90;;;;;;5017472;28;20727;-72
2021/07/15 12:48:56;;;;;;;1.23;0.82;;;32.10;99.90;;;;;;5013316;28;20261;-73
2021/07/15 12:51:24;;;;;;;1.38;1.08;;;32.10;99.90;;;;;;5016013;28;20621;-72
2021/07/15 12:53:52;;;;;;;1.70;0.98;;;32.10;99.90;;;;;;5017831;28;20252;-73
2021/07/15 12:56:26;;;;;;;1.48;0.75;;;32.30;99.90;;;;;;5019186;28;20679;-72
2021/07/15 12:59:09;;;;;;;0.98;0.63;;;31.90;99.90;;;;;;5023491;28;20275;-72
2021/07/15 13:01:54;;;;;;;1.45;1.05;;;31.50;99.90;;;;;;5016585;28;20189;-73